createdAt,value
2023-01-22T00:02:51.310Z,0.08
2023-01-22T00:07:53.336Z,0.08
2023-01-22T00:12:55.455Z,0.09
2023-01-22T00:17:57.568Z,0.08
2023-01-22T00:22:59.509Z,0.07
2023-01-22T00:28:01.564Z,0.06
2023-01-22T00:33:03.991Z,0.06
2023-01-22T00:38:06.225Z,0.04
2023-01-22T00:43:08.156Z,0.03
2023-01-22T00:48:10.430Z,0.03
2023-01-22T00:53:12.635Z,0.03
2023-01-22T00:58:14.561Z,0.03
2023-01-22T01:03:32.147Z,0.03
2023-01-22T01:08:36.972Z,0.01
2023-01-22T01:13:42.336Z,-0.01
2023-01-22T01:18:44.953Z,-0.01
2023-01-22T01:23:47.011Z,-0.02
2023-01-22T01:28:52.123Z,-0.04
2023-01-22T01:33:54.967Z,-0.07
2023-01-22T01:38:56.942Z,-0.08
2023-01-22T01:44:12.904Z,-0.09
2023-01-22T01:49:29.428Z,-0.09
2023-01-22T01:54:31.513Z,-0.10
2023-01-22T01:59:35.375Z,-0.10
2023-01-22T02:04:37.506Z,-0.10
2023-01-22T02:09:39.429Z,-0.11
2023-01-22T02:14:45.484Z,-0.12
2023-01-22T02:19:48.443Z,-0.11
2023-01-22T02:24:50.840Z,-0.11
2023-01-22T02:29:53.112Z,-0.12
2023-01-22T02:34:56.131Z,-0.15
2023-01-22T02:39:58.060Z,-0.14
2023-01-22T02:44:59.940Z,-0.14
2023-01-22T02:50:02.531Z,-0.13
2023-01-22T02:55:05.059Z,-0.12
2023-01-22T03:00:08.675Z,-0.11
2023-01-22T03:05:10.569Z,-0.12
2023-01-22T03:10:15.831Z,-0.13
2023-01-22T03:15:36.720Z,-0.13
2023-01-22T03:20:57.388Z,-0.14
2023-01-22T03:25:59.226Z,-0.14
2023-01-22T03:31:01.162Z,-0.14
2023-01-22T03:36:05.916Z,-0.15
2023-01-22T03:41:13.620Z,-0.15
2023-01-22T03:46:17.662Z,-0.15
2023-01-22T03:51:20.270Z,-0.15
2023-01-22T03:56:23.486Z,-0.16
2023-01-22T04:01:28.402Z,-0.14
2023-01-22T04:06:30.460Z,-0.12
2023-01-22T04:11:32.454Z,-0.11
2023-01-22T04:16:34.476Z,-0.11
2023-01-22T04:21:36.439Z,-0.12
2023-01-22T04:26:38.311Z,-0.12
2023-01-22T04:31:40.380Z,-0.12
2023-01-22T04:36:42.408Z,-0.11
2023-01-22T04:41:44.267Z,-0.10
2023-01-22T04:46:46.239Z,-0.09
2023-01-22T04:51:48.147Z,-0.08
2023-01-22T04:56:50.043Z,-0.07
2023-01-22T05:01:52.468Z,-0.06
2023-01-22T05:06:54.410Z,-0.06
2023-01-22T05:11:56.327Z,-0.06
2023-01-22T05:16:58.892Z,-0.04
2023-01-22T05:22:01.595Z,-0.05
2023-01-22T05:27:03.709Z,-0.06
2023-01-22T05:32:08.714Z,-0.06
2023-01-22T05:37:10.672Z,-0.08
2023-01-22T05:42:16.719Z,-0.07
2023-01-22T05:47:19.034Z,-0.07
2023-01-22T05:52:21.050Z,-0.07
2023-01-22T05:57:22.944Z,-0.07
2023-01-22T06:02:24.961Z,-0.08
2023-01-22T06:07:30.254Z,-0.08
2023-01-22T06:12:32.736Z,-0.08
2023-01-22T06:17:34.831Z,-0.07
2023-01-22T06:22:37.169Z,-0.06
2023-01-22T06:27:39.137Z,-0.05
2023-01-22T06:32:41.090Z,-0.05
2023-01-22T06:37:43.106Z,-0.03
2023-01-22T06:42:45.133Z,-0.03
2023-01-22T06:47:47.204Z,-0.02
2023-01-22T06:52:50.112Z,-0.03
2023-01-22T06:57:55.093Z,-0.03
2023-01-22T07:02:57.345Z,-0.02
2023-01-22T07:07:59.353Z,-0.02
2023-01-22T07:13:03.785Z,0.01
2023-01-22T07:18:05.771Z,0.03
2023-01-22T07:23:09.127Z,0.04
2023-01-22T07:28:15.424Z,0.07
2023-01-22T07:33:17.336Z,0.07
2023-01-22T07:38:19.244Z,0.08
2023-01-22T07:43:21.229Z,0.12
2023-01-22T07:48:24.224Z,0.13
2023-01-22T07:53:27.715Z,0.13
2023-01-22T07:58:29.845Z,0.13
2023-01-22T08:03:33.670Z,0.15
2023-01-22T08:08:35.727Z,0.16
2023-01-22T08:13:37.786Z,0.17
2023-01-22T08:18:40.025Z,0.18
2023-01-22T08:23:44.218Z,0.20
2023-01-22T08:28:48.495Z,0.20
2023-01-22T08:33:50.441Z,0.21
2023-01-22T08:38:52.612Z,0.26
2023-01-22T08:43:54.699Z,0.34
2023-01-22T08:48:57.032Z,0.40
2023-01-22T08:53:59.055Z,0.45
2023-01-22T08:59:06.633Z,0.51
2023-01-22T09:04:10.707Z,0.55
2023-01-22T09:09:13.133Z,0.62
2023-01-22T09:14:15.122Z,0.66
2023-01-22T09:19:17.303Z,0.68
2023-01-22T09:24:20.934Z,0.71
2023-01-22T09:29:22.994Z,0.72
2023-01-22T09:34:24.999Z,0.74
2023-01-22T09:39:26.961Z,0.77
2023-01-22T09:44:33.576Z,0.88
2023-01-22T09:49:52.350Z,0.93
2023-01-22T09:54:54.578Z,0.97
2023-01-22T09:59:56.778Z,1.02
2023-01-22T10:05:23.600Z,1.07
2023-01-22T10:10:27.329Z,1.15
2023-01-22T10:15:29.554Z,1.24
2023-01-22T10:20:33.053Z,1.33
2023-01-22T10:25:35.006Z,1.38
2023-01-22T10:30:46.977Z,1.35
2023-01-22T10:35:51.954Z,1.37
2023-01-22T10:41:01.919Z,1.41
2023-01-22T10:46:15.678Z,1.45
2023-01-22T10:51:22.074Z,1.44
2023-01-22T10:56:34.025Z,1.40
2023-01-22T11:01:37.667Z,1.44
2023-01-22T11:06:49.022Z,1.48
2023-01-22T11:12:00.451Z,1.47
2023-01-22T11:17:28.135Z,1.44
2023-01-22T11:22:40.220Z,1.45
2023-01-22T11:28:11.927Z,1.50
2023-01-22T11:33:39.860Z,1.50
2023-01-22T11:38:41.758Z,1.48
2023-01-22T11:44:12.611Z,1.43
2023-01-22T11:49:26.334Z,1.44
2023-01-22T11:54:44.182Z,1.46
2023-01-22T12:00:14.228Z,1.48
2023-01-22T12:05:48.484Z,1.50
2023-01-22T12:11:12.422Z,1.55
2023-01-22T12:16:36.817Z,1.65
2023-01-22T12:22:03.818Z,1.64
2023-01-22T12:27:14.803Z,1.57
2023-01-22T12:32:18.770Z,1.50
2023-01-22T12:37:26.551Z,1.46
2023-01-22T12:42:37.462Z,1.45
2023-01-22T12:47:45.585Z,1.47
2023-01-22T12:53:01.404Z,1.43
2023-01-22T12:58:05.193Z,1.38
2023-01-22T13:03:33.119Z,1.37
2023-01-22T13:08:39.762Z,1.42
2023-01-22T13:14:14.892Z,1.41
2023-01-22T13:19:21.283Z,1.42
2023-01-22T13:24:23.234Z,1.43
2023-01-22T13:29:36.433Z,1.44
2023-01-22T13:34:38.395Z,1.44
2023-01-22T13:39:40.403Z,1.42
2023-01-22T13:44:51.048Z,1.37
2023-01-22T13:49:53.480Z,1.30
2023-01-22T13:55:11.754Z,1.22
2023-01-22T14:00:24.285Z,1.16
2023-01-22T14:05:29.742Z,1.10
2023-01-22T14:10:34.196Z,1.04
2023-01-22T14:15:38.473Z,1.00
2023-01-22T14:20:41.994Z,0.97
2023-01-22T14:25:46.704Z,0.93
2023-01-22T14:30:50.060Z,0.90
2023-01-22T14:35:53.390Z,0.87
2023-01-22T14:40:56.167Z,0.83
2023-01-22T14:45:58.777Z,0.79
2023-01-22T14:51:06.995Z,0.75
2023-01-22T14:56:09.332Z,0.73
2023-01-22T15:01:17.368Z,0.70
2023-01-22T15:06:23.153Z,0.68
2023-01-22T15:11:25.605Z,0.66
2023-01-22T15:16:27.540Z,0.65
2023-01-22T15:21:29.683Z,0.64
2023-01-22T15:26:34.966Z,0.62
2023-01-22T15:31:37.193Z,0.61
2023-01-22T15:36:39.583Z,0.59
2023-01-22T15:41:42.055Z,0.58
2023-01-22T15:46:44.449Z,0.57
2023-01-22T15:51:46.425Z,0.56
2023-01-22T15:56:48.445Z,0.55
2023-01-22T16:01:51.920Z,0.54
2023-01-22T16:06:53.915Z,0.53
2023-01-22T16:11:57.063Z,0.51
2023-01-22T16:17:00.729Z,0.49
2023-01-22T16:22:03.672Z,0.48
2023-01-22T16:27:06.185Z,0.46
2023-01-22T16:32:08.099Z,0.45
2023-01-22T16:37:10.393Z,0.44
2023-01-22T16:42:12.434Z,0.44
2023-01-22T16:47:14.413Z,0.44
2023-01-22T16:52:22.421Z,0.43
2023-01-22T16:57:25.062Z,0.44
2023-01-22T17:02:27.217Z,0.44
2023-01-22T17:07:33.907Z,0.43
2023-01-22T17:12:36.373Z,0.41
2023-01-22T17:17:39.421Z,0.39
2023-01-22T17:22:41.780Z,0.37
2023-01-22T17:27:44.149Z,0.36
2023-01-22T17:32:47.692Z,0.35
2023-01-22T17:37:49.898Z,0.33
2023-01-22T17:42:51.972Z,0.32
2023-01-22T17:47:54.030Z,0.31
2023-01-22T17:52:55.875Z,0.31
2023-01-22T17:57:59.462Z,0.30
2023-01-22T18:03:01.371Z,0.30
2023-01-22T18:08:03.373Z,0.29
2023-01-22T18:13:05.261Z,0.30
2023-01-22T18:18:07.146Z,0.30
2023-01-22T18:23:09.033Z,0.31
2023-01-22T18:28:11.650Z,0.31
2023-01-22T18:33:17.230Z,0.31
2023-01-22T18:38:28.065Z,0.31
2023-01-22T18:43:30.063Z,0.31
2023-01-22T18:48:32.105Z,0.31
2023-01-22T18:53:35.155Z,0.30
2023-01-22T18:58:38.711Z,0.30
2023-01-22T19:03:43.195Z,0.30
2023-01-22T19:08:54.179Z,0.29
2023-01-22T19:13:57.074Z,0.28
2023-01-22T19:19:07.384Z,0.27
2023-01-22T19:24:11.137Z,0.27
2023-01-22T19:29:17.686Z,0.26
2023-01-22T19:34:25.080Z,0.26
2023-01-22T19:39:27.154Z,0.25
2023-01-22T19:44:29.862Z,0.24
2023-01-22T19:49:32.273Z,0.24
2023-01-22T19:54:34.809Z,0.24
2023-01-22T19:59:36.734Z,0.23
2023-01-22T20:04:40.529Z,0.23
2023-01-22T20:09:42.499Z,0.22
2023-01-22T20:14:44.461Z,0.21
2023-01-22T20:19:46.501Z,0.20
2023-01-22T20:24:48.545Z,0.20
2023-01-22T20:29:50.674Z,0.20
2023-01-22T20:34:52.789Z,0.19
2023-01-22T20:39:55.046Z,0.18
2023-01-22T20:44:58.325Z,0.17
2023-01-22T20:50:00.411Z,0.17
2023-01-22T20:55:03.569Z,0.17
2023-01-22T21:00:06.618Z,0.17
2023-01-22T21:05:09.128Z,0.17
2023-01-22T21:10:12.967Z,0.17
2023-01-22T21:15:15.198Z,0.17
2023-01-22T21:20:17.483Z,0.17
2023-01-22T21:25:20.258Z,0.15
2023-01-22T21:30:22.524Z,0.13
2023-01-22T21:35:24.994Z,0.12
2023-01-22T21:40:27.436Z,0.10
2023-01-22T21:45:48.753Z,0.10
2023-01-22T21:50:50.685Z,0.09
2023-01-22T21:55:53.363Z,0.09
2023-01-22T22:00:56.197Z,0.09
2023-01-22T22:06:02.338Z,0.09
2023-01-22T22:11:04.774Z,0.10
2023-01-22T22:16:08.181Z,0.12
2023-01-22T22:21:11.103Z,0.13
2023-01-22T22:26:13.056Z,0.14
2023-01-22T22:31:16.967Z,0.12
2023-01-22T22:36:21.791Z,0.13
2023-01-22T22:41:30.629Z,0.14
2023-01-22T22:46:36.280Z,0.15
2023-01-22T22:51:40.548Z,0.14
2023-01-22T22:56:47.435Z,0.15
2023-01-22T23:01:50.552Z,0.15
2023-01-22T23:06:54.832Z,0.13
2023-01-22T23:12:02.858Z,0.10
2023-01-22T23:17:04.791Z,0.09
2023-01-22T23:22:06.781Z,0.07
2023-01-22T23:27:08.670Z,0.05
2023-01-22T23:32:10.614Z,0.05
2023-01-22T23:37:13.867Z,0.04
2023-01-22T23:42:15.790Z,0.03
2023-01-22T23:47:19.522Z,0.02
2023-01-22T23:52:21.431Z,0.00
2023-01-22T23:57:23.599Z,0.01
